sensor_id;sensor_type;location;lat;lon;timestamp;temperature;humidity
65584;DHT22;62116;43.582;1.470;2022-09-29T00:02:18;15.68;83.73
65584;DHT22;62116;43.582;1.470;2022-09-29T00:04:43;15.61;83.83
65584;DHT22;62116;43.582;1.470;2022-09-29T00:07:08;15.61;83.94
65584;DHT22;62116;43.582;1.470;2022-09-29T00:09:34;15.59;83.93
65584;DHT22;62116;43.582;1.470;2022-09-29T00:11:59;15.61;83.87
65584;DHT22;62116;43.582;1.470;2022-09-29T00:14:25;15.61;83.65
65584;DHT22;62116;43.582;1.470;2022-09-29T00:16:50;15.63;83.85
65584;DHT22;62116;43.582;1.470;2022-09-29T00:19:17;15.61;83.82
65584;DHT22;62116;43.582;1.470;2022-09-29T00:21:46;15.59;83.68
65584;DHT22;62116;43.582;1.470;2022-09-29T00:24:11;15.59;83.47
65584;DHT22;62116;43.582;1.470;2022-09-29T00:26:37;15.63;83.26
65584;DHT22;62116;43.582;1.470;2022-09-29T00:29:02;15.61;83.43
65584;DHT22;62116;43.582;1.470;2022-09-29T00:31:31;15.57;83.87
65584;DHT22;62116;43.582;1.470;2022-09-29T00:33:57;15.61;83.58
65584;DHT22;62116;43.582;1.470;2022-09-29T00:36:24;15.59;83.76
65584;DHT22;62116;43.582;1.470;2022-09-29T00:38:50;15.62;83.71
65584;DHT22;62116;43.582;1.470;2022-09-29T00:41:24;15.66;83.38
65584;DHT22;62116;43.582;1.470;2022-09-29T00:49:06;15.58;83.56
65584;DHT22;62116;43.582;1.470;2022-09-29T00:51:33;15.61;83.52
65584;DHT22;62116;43.582;1.470;2022-09-29T00:54:00;15.55;83.55
65584;DHT22;62116;43.582;1.470;2022-09-29T00:56:26;15.57;83.21
65584;DHT22;62116;43.582;1.470;2022-09-29T00:58:59;15.58;83.11
65584;DHT22;62116;43.582;1.470;2022-09-29T01:01:28;15.58;83.11
65584;DHT22;62116;43.582;1.470;2022-09-29T01:03:58;15.61;83.19
65584;DHT22;62116;43.582;1.470;2022-09-29T01:06:33;15.65;83.05
65584;DHT22;62116;43.582;1.470;2022-09-29T01:09:06;15.63;83.06
65584;DHT22;62116;43.582;1.470;2022-09-29T01:11:33;15.61;83.41
65584;DHT22;62116;43.582;1.470;2022-09-29T01:14:00;15.57;83.99
65584;DHT22;62116;43.582;1.470;2022-09-29T01:16:30;15.61;83.79
65584;DHT22;62116;43.582;1.470;2022-09-29T01:18:57;15.63;83.60
65584;DHT22;62116;43.582;1.470;2022-09-29T01:24:38;15.65;83.62
65584;DHT22;62116;43.582;1.470;2022-09-29T01:32:53;15.62;83.60
65584;DHT22;62116;43.582;1.470;2022-09-29T01:35:25;15.65;83.65
65584;DHT22;62116;43.582;1.470;2022-09-29T01:40:55;15.61;83.52
65584;DHT22;62116;43.582;1.470;2022-09-29T01:43:37;15.57;83.66
65584;DHT22;62116;43.582;1.470;2022-09-29T01:46:26;15.58;83.52
65584;DHT22;62116;43.582;1.470;2022-09-29T01:48:54;15.61;83.32
65584;DHT22;62116;43.582;1.470;2022-09-29T01:51:29;15.57;83.58
65584;DHT22;62116;43.582;1.470;2022-09-29T01:53:57;15.49;83.76
65584;DHT22;62116;43.582;1.470;2022-09-29T01:56:37;15.47;83.94
65584;DHT22;62116;43.582;1.470;2022-09-29T01:59:29;15.49;83.84
65584;DHT22;62116;43.582;1.470;2022-09-29T02:02:00;15.45;83.72
65584;DHT22;62116;43.582;1.470;2022-09-29T02:04:57;15.48;83.58
65584;DHT22;62116;43.582;1.470;2022-09-29T02:07:38;15.45;83.63
65584;DHT22;62116;43.582;1.470;2022-09-29T02:10:34;15.41;83.68
65584;DHT22;62116;43.582;1.470;2022-09-29T02:13:02;15.42;83.74
65584;DHT22;62116;43.582;1.470;2022-09-29T02:15:33;15.45;83.76
65584;DHT22;62116;43.582;1.470;2022-09-29T02:18:05;15.41;83.75
65584;DHT22;62116;43.582;1.470;2022-09-29T02:20:32;15.42;83.99
65584;DHT22;62116;43.582;1.470;2022-09-29T02:22:58;15.38;83.94
65584;DHT22;62116;43.582;1.470;2022-09-29T02:25:24;15.44;83.70
65584;DHT22;62116;43.582;1.470;2022-09-29T02:27:50;15.47;83.65
65584;DHT22;62116;43.582;1.470;2022-09-29T02:30:16;15.47;83.63
65584;DHT22;62116;43.582;1.470;2022-09-29T02:32:42;15.44;83.65
65584;DHT22;62116;43.582;1.470;2022-09-29T02:35:09;15.47;83.45
65584;DHT22;62116;43.582;1.470;2022-09-29T02:41:15;15.45;83.35
65584;DHT22;62116;43.582;1.470;2022-09-29T02:51:53;15.35;83.48
65584;DHT22;62116;43.582;1.470;2022-09-29T02:57:45;15.37;83.48
65584;DHT22;62116;43.582;1.470;2022-09-29T03:00:13;15.38;83.41
65584;DHT22;62116;43.582;1.470;2022-09-29T03:02:40;15.38;83.74
65584;DHT22;62116;43.582;1.470;2022-09-29T03:05:15;15.35;83.62
65584;DHT22;62116;43.582;1.470;2022-09-29T03:07:42;15.41;83.46
65584;DHT22;62116;43.582;1.470;2022-09-29T03:10:08;15.32;83.81
65584;DHT22;62116;43.582;1.470;2022-09-29T03:12:34;15.32;83.83
65584;DHT22;62116;43.582;1.470;2022-09-29T03:14:59;15.32;83.57
65584;DHT22;62116;43.582;1.470;2022-09-29T03:17:25;15.35;83.69
65584;DHT22;62116;43.582;1.470;2022-09-29T03:19:50;15.31;83.77
65584;DHT22;62116;43.582;1.470;2022-09-29T03:22:16;15.27;84.12
65584;DHT22;62116;43.582;1.470;2022-09-29T03:24:43;15.23;84.25
65584;DHT22;62116;43.582;1.470;2022-09-29T03:27:09;15.30;83.88
65584;DHT22;62116;43.582;1.470;2022-09-29T03:29:35;15.28;83.70
65584;DHT22;62116;43.582;1.470;2022-09-29T03:32:01;15.35;83.77
65584;DHT22;62116;43.582;1.470;2022-09-29T03:34:26;15.32;83.73
65584;DHT22;62116;43.582;1.470;2022-09-29T03:36:52;15.34;83.73
65584;DHT22;62116;43.582;1.470;2022-09-29T03:39:17;15.31;83.78
65584;DHT22;62116;43.582;1.470;2022-09-29T03:41:43;15.24;84.36
65584;DHT22;62116;43.582;1.470;2022-09-29T03:44:08;15.31;84.05
65584;DHT22;62116;43.582;1.470;2022-09-29T03:46:33;15.30;84.15
65584;DHT22;62116;43.582;1.470;2022-09-29T03:48:59;15.27;84.36
65584;DHT22;62116;43.582;1.470;2022-09-29T03:51:24;15.30;84.53
65584;DHT22;62116;43.582;1.470;2022-09-29T03:53:49;15.32;84.15
65584;DHT22;62116;43.582;1.470;2022-09-29T03:56:15;15.32;84.21
65584;DHT22;62116;43.582;1.470;2022-09-29T03:58:40;15.34;84.13
65584;DHT22;62116;43.582;1.470;2022-09-29T04:01:06;15.34;83.91
65584;DHT22;62116;43.582;1.470;2022-09-29T04:03:31;15.34;84.02
65584;DHT22;62116;43.582;1.470;2022-09-29T04:05:57;15.28;84.44
65584;DHT22;62116;43.582;1.470;2022-09-29T04:08:22;15.30;84.03
65584;DHT22;62116;43.582;1.470;2022-09-29T04:10:48;15.30;83.96
65584;DHT22;62116;43.582;1.470;2022-09-29T04:13:14;15.24;83.59
65584;DHT22;62116;43.582;1.470;2022-09-29T04:15:39;15.25;83.44
65584;DHT22;62116;43.582;1.470;2022-09-29T04:18:05;15.24;83.55
65584;DHT22;62116;43.582;1.470;2022-09-29T04:20:31;15.21;83.21
65584;DHT22;62116;43.582;1.470;2022-09-29T04:22:57;15.15;83.03
65584;DHT22;62116;43.582;1.470;2022-09-29T04:25:22;15.14;82.94
65584;DHT22;62116;43.582;1.470;2022-09-29T04:27:48;15.17;82.94
65584;DHT22;62116;43.582;1.470;2022-09-29T04:30:13;15.14;82.60
65584;DHT22;62116;43.582;1.470;2022-09-29T04:32:39;15.15;82.70
65584;DHT22;62116;43.582;1.470;2022-09-29T04:35:05;15.14;82.78
65584;DHT22;62116;43.582;1.470;2022-09-29T04:37:30;15.14;82.56
65584;DHT22;62116;43.582;1.470;2022-09-29T04:39:56;15.15;82.59
65584;DHT22;62116;43.582;1.470;2022-09-29T04:42:21;15.14;82.71
65584;DHT22;62116;43.582;1.470;2022-09-29T04:44:47;15.11;82.78
65584;DHT22;62116;43.582;1.470;2022-09-29T04:47:12;15.12;82.83
65584;DHT22;62116;43.582;1.470;2022-09-29T04:49:38;15.10;83.27
65584;DHT22;62116;43.582;1.470;2022-09-29T04:52:04;15.12;83.14
65584;DHT22;62116;43.582;1.470;2022-09-29T04:54:31;15.17;83.05
65584;DHT22;62116;43.582;1.470;2022-09-29T04:56:57;15.15;83.05
65584;DHT22;62116;43.582;1.470;2022-09-29T04:59:23;15.17;83.08
65584;DHT22;62116;43.582;1.470;2022-09-29T05:01:48;15.17;83.36
65584;DHT22;62116;43.582;1.470;2022-09-29T05:04:13;15.17;83.38
65584;DHT22;62116;43.582;1.470;2022-09-29T05:06:39;15.17;83.67
65584;DHT22;62116;43.582;1.470;2022-09-29T05:09:05;15.14;83.82
65584;DHT22;62116;43.582;1.470;2022-09-29T05:11:30;15.12;83.88
65584;DHT22;62116;43.582;1.470;2022-09-29T05:13:56;15.11;83.78
65584;DHT22;62116;43.582;1.470;2022-09-29T05:16:22;15.10;83.72
65584;DHT22;62116;43.582;1.470;2022-09-29T05:18:47;15.12;83.41
65584;DHT22;62116;43.582;1.470;2022-09-29T05:21:13;15.12;83.56
65584;DHT22;62116;43.582;1.470;2022-09-29T05:23:39;15.12;83.45
65584;DHT22;62116;43.582;1.470;2022-09-29T05:26:06;15.15;83.26
65584;DHT22;62116;43.582;1.470;2022-09-29T05:28:33;15.17;83.13
65584;DHT22;62116;43.582;1.470;2022-09-29T05:31:05;15.14;83.40
65584;DHT22;62116;43.582;1.470;2022-09-29T05:33:32;15.12;83.86
65584;DHT22;62116;43.582;1.470;2022-09-29T05:35:57;15.11;83.75
65584;DHT22;62116;43.582;1.470;2022-09-29T05:38:23;15.15;83.99
65584;DHT22;62116;43.582;1.470;2022-09-29T05:40:50;15.15;83.68
65584;DHT22;62116;43.582;1.470;2022-09-29T05:43:15;15.17;83.73
65584;DHT22;62116;43.582;1.470;2022-09-29T05:45:41;15.24;83.72
65584;DHT22;62116;43.582;1.470;2022-09-29T05:48:07;15.21;83.45
65584;DHT22;62116;43.582;1.470;2022-09-29T05:50:32;15.23;83.54
65584;DHT22;62116;43.582;1.470;2022-09-29T05:53:05;15.23;83.69
65584;DHT22;62116;43.582;1.470;2022-09-29T05:55:31;15.23;83.86
65584;DHT22;62116;43.582;1.470;2022-09-29T05:57:56;15.24;83.56
65584;DHT22;62116;43.582;1.470;2022-09-29T06:00:22;15.24;83.50
65584;DHT22;62116;43.582;1.470;2022-09-29T06:02:47;15.23;83.39
65584;DHT22;62116;43.582;1.470;2022-09-29T06:05:12;15.24;83.47
65584;DHT22;62116;43.582;1.470;2022-09-29T06:07:38;15.24;83.54
65584;DHT22;62116;43.582;1.470;2022-09-29T06:10:03;15.28;83.49
65584;DHT22;62116;43.582;1.470;2022-09-29T06:12:34;15.30;83.58
65584;DHT22;62116;43.582;1.470;2022-09-29T06:14:59;15.30;83.36
65584;DHT22;62116;43.582;1.470;2022-09-29T06:17:25;15.25;83.92
65584;DHT22;62116;43.582;1.470;2022-09-29T06:19:50;15.30;84.08
65584;DHT22;62116;43.582;1.470;2022-09-29T06:22:17;15.31;83.75
65584;DHT22;62116;43.582;1.470;2022-09-29T06:24:43;15.30;83.53
65584;DHT22;62116;43.582;1.470;2022-09-29T06:27:08;15.32;83.55
65584;DHT22;62116;43.582;1.470;2022-09-29T06:29:35;15.31;83.19
65584;DHT22;62116;43.582;1.470;2022-09-29T06:32:01;15.28;83.69
65584;DHT22;62116;43.582;1.470;2022-09-29T06:34:26;15.25;83.56
65584;DHT22;62116;43.582;1.470;2022-09-29T06:36:52;15.24;83.98
65584;DHT22;62116;43.582;1.470;2022-09-29T06:39:36;15.27;83.86
65584;DHT22;62116;43.582;1.470;2022-09-29T06:42:02;15.27;83.60
65584;DHT22;62116;43.582;1.470;2022-09-29T06:44:27;15.28;83.85
65584;DHT22;62116;43.582;1.470;2022-09-29T06:46:55;15.28;84.31
65584;DHT22;62116;43.582;1.470;2022-09-29T06:49:21;15.32;84.03
65584;DHT22;62116;43.582;1.470;2022-09-29T06:51:47;15.27;84.24
65584;DHT22;62116;43.582;1.470;2022-09-29T06:54:15;15.37;84.13
65584;DHT22;62116;43.582;1.470;2022-09-29T06:56:40;15.38;83.32
65584;DHT22;62116;43.582;1.470;2022-09-29T06:59:07;15.45;83.76
65584;DHT22;62116;43.582;1.470;2022-09-29T07:01:33;15.45;83.96
65584;DHT22;62116;43.582;1.470;2022-09-29T07:03:58;15.38;84.55
65584;DHT22;62116;43.582;1.470;2022-09-29T07:06:25;15.41;84.25
65584;DHT22;62116;43.582;1.470;2022-09-29T07:08:54;15.48;83.88
65584;DHT22;62116;43.582;1.470;2022-09-29T07:11:20;15.51;83.56
65584;DHT22;62116;43.582;1.470;2022-09-29T07:13:46;15.51;83.87
65584;DHT22;62116;43.582;1.470;2022-09-29T07:16:12;15.51;83.77
65584;DHT22;62116;43.582;1.470;2022-09-29T07:18:39;15.55;83.44
65584;DHT22;62116;43.582;1.470;2022-09-29T07:21:07;15.58;83.58
65584;DHT22;62116;43.582;1.470;2022-09-29T07:23:34;15.63;83.21
65584;DHT22;62116;43.582;1.470;2022-09-29T07:26:00;15.62;83.37
65584;DHT22;62116;43.582;1.470;2022-09-29T07:28:26;15.63;83.71
65584;DHT22;62116;43.582;1.470;2022-09-29T07:31:07;15.59;83.80
65584;DHT22;62116;43.582;1.470;2022-09-29T07:33:33;15.59;83.91
65584;DHT22;62116;43.582;1.470;2022-09-29T07:35:59;15.59;84.18
65584;DHT22;62116;43.582;1.470;2022-09-29T07:38:25;15.54;84.17
65584;DHT22;62116;43.582;1.470;2022-09-29T07:40:51;15.54;84.12
65584;DHT22;62116;43.582;1.470;2022-09-29T07:43:18;15.55;84.29
65584;DHT22;62116;43.582;1.470;2022-09-29T07:45:48;15.57;84.32
65584;DHT22;62116;43.582;1.470;2022-09-29T07:48:14;15.55;84.48
65584;DHT22;62116;43.582;1.470;2022-09-29T07:50:40;15.62;84.19
65584;DHT22;62116;43.582;1.470;2022-09-29T07:53:05;15.65;83.84
65584;DHT22;62116;43.582;1.470;2022-09-29T07:55:31;15.63;83.39
65584;DHT22;62116;43.582;1.470;2022-09-29T07:57:56;15.66;83.68
65584;DHT22;62116;43.582;1.470;2022-09-29T08:00:22;15.63;83.96
65584;DHT22;62116;43.582;1.470;2022-09-29T08:02:47;15.61;84.08
65584;DHT22;62116;43.582;1.470;2022-09-29T08:05:13;15.54;84.17
65584;DHT22;62116;43.582;1.470;2022-09-29T08:07:39;15.57;83.97
65584;DHT22;62116;43.582;1.470;2022-09-29T08:10:05;15.41;84.23
65584;DHT22;62116;43.582;1.470;2022-09-29T08:12:30;15.49;84.23
65584;DHT22;62116;43.582;1.470;2022-09-29T08:14:56;15.51;84.04
65584;DHT22;62116;43.582;1.470;2022-09-29T08:17:22;15.49;84.24
65584;DHT22;62116;43.582;1.470;2022-09-29T08:19:47;15.55;83.97
65584;DHT22;62116;43.582;1.470;2022-09-29T08:22:12;15.61;83.80
65584;DHT22;62116;43.582;1.470;2022-09-29T08:24:38;15.65;83.48
65584;DHT22;62116;43.582;1.470;2022-09-29T08:27:05;15.59;83.59
65584;DHT22;62116;43.582;1.470;2022-09-29T08:29:31;15.66;82.78
65584;DHT22;62116;43.582;1.470;2022-09-29T08:31:57;15.69;82.16
65584;DHT22;62116;43.582;1.470;2022-09-29T08:34:22;15.66;82.64
65584;DHT22;62116;43.582;1.470;2022-09-29T08:36:48;15.78;82.31
65584;DHT22;62116;43.582;1.470;2022-09-29T08:39:13;15.92;82.01
65584;DHT22;62116;43.582;1.470;2022-09-29T08:41:53;16.13;81.72
65584;DHT22;62116;43.582;1.470;2022-09-29T08:44:42;16.43;80.83
65584;DHT22;62116;43.582;1.470;2022-09-29T08:47:36;16.77;79.85
65584;DHT22;62116;43.582;1.470;2022-09-29T08:50:35;17.11;76.83
65584;DHT22;62116;43.582;1.470;2022-09-29T08:53:07;17.58;77.84
65584;DHT22;62116;43.582;1.470;2022-09-29T08:55:44;17.81;75.65
65584;DHT22;62116;43.582;1.470;2022-09-29T08:58:12;17.86;75.07
65584;DHT22;62116;43.582;1.470;2022-09-29T09:07:05;18.06;74.33
65584;DHT22;62116;43.582;1.470;2022-09-29T09:09:54;18.26;73.50
65584;DHT22;62116;43.582;1.470;2022-09-29T09:12:43;18.37;73.06
65584;DHT22;62116;43.582;1.470;2022-09-29T09:21:08;18.40;73.02
65584;DHT22;62116;43.582;1.470;2022-09-29T09:26:05;18.41;74.10
65584;DHT22;62116;43.582;1.470;2022-09-29T09:31:14;18.47;72.84
65584;DHT22;62116;43.582;1.470;2022-09-29T09:38:46;18.65;71.96
65584;DHT22;62116;43.582;1.470;2022-09-29T09:41:19;18.49;70.59
65584;DHT22;62116;43.582;1.470;2022-09-29T09:43:50;18.50;71.79
65584;DHT22;62116;43.582;1.470;2022-09-29T09:46:46;18.46;69.98
65584;DHT22;62116;43.582;1.470;2022-09-29T09:49:28;18.40;70.66
65584;DHT22;62116;43.582;1.470;2022-09-29T09:52:00;18.40;70.97
65584;DHT22;62116;43.582;1.470;2022-09-29T09:54:42;18.23;71.72
65584;DHT22;62116;43.582;1.470;2022-09-29T10:02:19;18.06;70.81
65584;DHT22;62116;43.582;1.470;2022-09-29T10:04:53;18.25;70.14
65584;DHT22;62116;43.582;1.470;2022-09-29T10:07:23;18.41;71.08
65584;DHT22;62116;43.582;1.470;2022-09-29T10:09:50;18.51;69.47
65584;DHT22;62116;43.582;1.470;2022-09-29T10:12:19;18.51;69.88
65584;DHT22;62116;43.582;1.470;2022-09-29T10:15:04;18.39;70.80
65584;DHT22;62116;43.582;1.470;2022-09-29T10:17:40;18.19;69.51
65584;DHT22;62116;43.582;1.470;2022-09-29T10:20:07;18.13;69.75
65584;DHT22;62116;43.582;1.470;2022-09-29T10:22:34;18.12;70.29
65584;DHT22;62116;43.582;1.470;2022-09-29T10:27:33;18.00;70.23
65584;DHT22;62116;43.582;1.470;2022-09-29T10:30:01;17.86;71.02
65584;DHT22;62116;43.582;1.470;2022-09-29T10:32:29;17.81;70.91
65584;DHT22;62116;43.582;1.470;2022-09-29T10:35:23;17.49;72.16
65584;DHT22;62116;43.582;1.470;2022-09-29T10:38:02;17.46;72.97
65584;DHT22;62116;43.582;1.470;2022-09-29T10:40:30;17.42;72.94
65584;DHT22;62116;43.582;1.470;2022-09-29T10:42:56;17.38;72.76
65584;DHT22;62116;43.582;1.470;2022-09-29T10:45:26;17.32;74.23
65584;DHT22;62116;43.582;1.470;2022-09-29T10:52:52;17.10;74.49
65584;DHT22;62116;43.582;1.470;2022-09-29T10:55:46;17.15;74.48
65584;DHT22;62116;43.582;1.470;2022-09-29T10:58:27;17.17;73.86
65584;DHT22;62116;43.582;1.470;2022-09-29T11:01:11;17.17;72.67
65584;DHT22;62116;43.582;1.470;2022-09-29T11:03:56;17.12;72.25
65584;DHT22;62116;43.582;1.470;2022-09-29T11:06:35;17.17;72.78
65584;DHT22;62116;43.582;1.470;2022-09-29T11:19:51;17.06;72.95
65584;DHT22;62116;43.582;1.470;2022-09-29T11:25:30;17.30;73.05
65584;DHT22;62116;43.582;1.470;2022-09-29T11:28:27;17.35;73.17
65584;DHT22;62116;43.582;1.470;2022-09-29T11:36:19;17.66;71.56
65584;DHT22;62116;43.582;1.470;2022-09-29T11:42:12;17.69;70.62
65584;DHT22;62116;43.582;1.470;2022-09-29T11:45:01;17.65;71.77
65584;DHT22;62116;43.582;1.470;2022-09-29T11:50:18;17.51;74.29
65584;DHT22;62116;43.582;1.470;2022-09-29T11:53:03;17.35;76.27
65584;DHT22;62116;43.582;1.470;2022-09-29T12:01:02;17.38;74.48
65584;DHT22;62116;43.582;1.470;2022-09-29T12:06:25;17.42;74.70
65584;DHT22;62116;43.582;1.470;2022-09-29T12:17:40;17.59;71.49
65584;DHT22;62116;43.582;1.470;2022-09-29T12:20:29;17.59;70.29
65584;DHT22;62116;43.582;1.470;2022-09-29T12:22:58;17.52;69.35
65584;DHT22;62116;43.582;1.470;2022-09-29T12:25:27;17.56;69.88
65584;DHT22;62116;43.582;1.470;2022-09-29T12:27:57;17.52;70.78
65584;DHT22;62116;43.582;1.470;2022-09-29T12:30:28;17.55;70.62
65584;DHT22;62116;43.582;1.470;2022-09-29T12:33:18;17.51;71.08
65584;DHT22;62116;43.582;1.470;2022-09-29T12:38:35;17.41;69.59
65584;DHT22;62116;43.582;1.470;2022-09-29T12:41:16;17.42;69.01
65584;DHT22;62116;43.582;1.470;2022-09-29T12:46:25;17.34;68.64
65584;DHT22;62116;43.582;1.470;2022-09-29T12:48:57;17.36;67.84
65584;DHT22;62116;43.582;1.470;2022-09-29T12:51:33;17.32;68.10
65584;DHT22;62116;43.582;1.470;2022-09-29T12:56:44;17.42;67.68
65584;DHT22;62116;43.582;1.470;2022-09-29T13:01:54;17.43;67.83
65584;DHT22;62116;43.582;1.470;2022-09-29T13:10:04;17.56;68.60
65584;DHT22;62116;43.582;1.470;2022-09-29T13:12:48;17.53;68.75
65584;DHT22;62116;43.582;1.470;2022-09-29T13:15:26;17.59;68.94
65584;DHT22;62116;43.582;1.470;2022-09-29T13:30:48;17.75;66.35
65584;DHT22;62116;43.582;1.470;2022-09-29T13:33:24;17.72;66.98
65584;DHT22;62116;43.582;1.470;2022-09-29T13:35:51;17.72;66.69
65584;DHT22;62116;43.582;1.470;2022-09-29T13:38:27;17.72;68.48
65584;DHT22;62116;43.582;1.470;2022-09-29T13:51:53;17.82;67.44
65584;DHT22;62116;43.582;1.470;2022-09-29T13:54:42;17.73;67.29
65584;DHT22;62116;43.582;1.470;2022-09-29T13:59:55;17.85;65.75
65584;DHT22;62116;43.582;1.470;2022-09-29T14:04:55;17.83;67.18
65584;DHT22;62116;43.582;1.470;2022-09-29T14:07:39;17.81;66.03
65584;DHT22;62116;43.582;1.470;2022-09-29T14:13:05;17.75;65.21
65584;DHT22;62116;43.582;1.470;2022-09-29T14:15:34;17.73;65.55
65584;DHT22;62116;43.582;1.470;2022-09-29T14:18:04;17.68;66.05
65584;DHT22;62116;43.582;1.470;2022-09-29T14:20:33;17.71;65.90
65584;DHT22;62116;43.582;1.470;2022-09-29T14:23:04;17.69;65.06
65584;DHT22;62116;43.582;1.470;2022-09-29T14:25:31;17.71;64.89
65584;DHT22;62116;43.582;1.470;2022-09-29T14:33:03;17.75;66.70
65584;DHT22;62116;43.582;1.470;2022-09-29T14:35:35;17.82;66.99
65584;DHT22;62116;43.582;1.470;2022-09-29T14:38:11;17.76;65.34
65584;DHT22;62116;43.582;1.470;2022-09-29T14:40:38;17.69;65.44
65584;DHT22;62116;43.582;1.470;2022-09-29T14:43:16;17.78;65.34
65584;DHT22;62116;43.582;1.470;2022-09-29T14:46:06;17.83;65.34
65584;DHT22;62116;43.582;1.470;2022-09-29T14:49:02;17.81;65.05
65584;DHT22;62116;43.582;1.470;2022-09-29T14:54:40;17.81;64.87
65584;DHT22;62116;43.582;1.470;2022-09-29T15:04:43;17.72;65.08
65584;DHT22;62116;43.582;1.470;2022-09-29T15:07:14;17.72;66.00
65584;DHT22;62116;43.582;1.470;2022-09-29T15:09:46;17.68;64.92
65584;DHT22;62116;43.582;1.470;2022-09-29T15:12:19;17.69;65.32
65584;DHT22;62116;43.582;1.470;2022-09-29T15:14:45;17.73;64.71
65584;DHT22;62116;43.582;1.470;2022-09-29T15:17:26;17.75;64.39
65584;DHT22;62116;43.582;1.470;2022-09-29T15:20:23;17.75;64.23
65584;DHT22;62116;43.582;1.470;2022-09-29T15:25:45;17.73;65.68
65584;DHT22;62116;43.582;1.470;2022-09-29T15:28:27;17.73;65.79
65584;DHT22;62116;43.582;1.470;2022-09-29T15:31:00;17.69;66.84
65584;DHT22;62116;43.582;1.470;2022-09-29T15:33:37;17.69;67.20
65584;DHT22;62116;43.582;1.470;2022-09-29T15:36:07;17.66;67.55
65584;DHT22;62116;43.582;1.470;2022-09-29T15:38:38;17.63;67.24
65584;DHT22;62116;43.582;1.470;2022-09-29T15:44:01;17.56;67.94
65584;DHT22;62116;43.582;1.470;2022-09-29T15:46:35;17.52;68.78
65584;DHT22;62116;43.582;1.470;2022-09-29T15:49:21;17.51;69.48
65584;DHT22;62116;43.582;1.470;2022-09-29T15:52:02;17.48;70.14
65584;DHT22;62116;43.582;1.470;2022-09-29T15:54:36;17.43;70.76
65584;DHT22;62116;43.582;1.470;2022-09-29T15:57:04;17.39;71.40
65584;DHT22;62116;43.582;1.470;2022-09-29T16:03:07;17.35;71.87
65584;DHT22;62116;43.582;1.470;2022-09-29T16:05:37;17.31;71.95
65584;DHT22;62116;43.582;1.470;2022-09-29T16:08:12;17.22;72.51
65584;DHT22;62116;43.582;1.470;2022-09-29T16:10:42;17.17;73.38
65584;DHT22;62116;43.582;1.470;2022-09-29T16:13:18;17.15;74.05
65584;DHT22;62116;43.582;1.470;2022-09-29T16:15:46;17.07;74.99
65584;DHT22;62116;43.582;1.470;2022-09-29T16:18:22;17.04;74.63
65584;DHT22;62116;43.582;1.470;2022-09-29T16:20:49;16.98;75.21
65584;DHT22;62116;43.582;1.470;2022-09-29T16:23:20;16.95;75.26
65584;DHT22;62116;43.582;1.470;2022-09-29T16:25:45;16.90;75.79
65584;DHT22;62116;43.582;1.470;2022-09-29T16:28:31;16.81;76.55
65584;DHT22;62116;43.582;1.470;2022-09-29T16:31:03;16.83;76.10
65584;DHT22;62116;43.582;1.470;2022-09-29T16:33:32;16.78;76.76
65584;DHT22;62116;43.582;1.470;2022-09-29T16:36:16;16.76;76.58
65584;DHT22;62116;43.582;1.470;2022-09-29T16:38:49;16.73;76.76
65584;DHT22;62116;43.582;1.470;2022-09-29T16:41:26;16.70;77.35
65584;DHT22;62116;43.582;1.470;2022-09-29T16:49:28;16.60;77.24
65584;DHT22;62116;43.582;1.470;2022-09-29T16:52:20;16.53;77.99
65584;DHT22;62116;43.582;1.470;2022-09-29T16:54:51;16.53;77.49
65584;DHT22;62116;43.582;1.470;2022-09-29T16:57:59;16.43;78.27
65584;DHT22;62116;43.582;1.470;2022-09-29T17:00:26;16.43;77.97
65584;DHT22;62116;43.582;1.470;2022-09-29T17:02:54;16.30;78.39
65584;DHT22;62116;43.582;1.470;2022-09-29T17:05:20;16.26;78.23
65584;DHT22;62116;43.582;1.470;2022-09-29T17:07:46;16.23;78.46
65584;DHT22;62116;43.582;1.470;2022-09-29T17:10:18;16.17;78.55
65584;DHT22;62116;43.582;1.470;2022-09-29T17:12:43;16.05;78.72
65584;DHT22;62116;43.582;1.470;2022-09-29T17:15:12;16.06;78.57
65584;DHT22;62116;43.582;1.470;2022-09-29T17:17:38;16.09;78.79
65584;DHT22;62116;43.582;1.470;2022-09-29T17:20:11;16.12;78.09
65584;DHT22;62116;43.582;1.470;2022-09-29T17:22:37;16.13;77.86
65584;DHT22;62116;43.582;1.470;2022-09-29T17:25:03;16.14;77.65
65584;DHT22;62116;43.582;1.470;2022-09-29T17:27:29;16.17;78.18
65584;DHT22;62116;43.582;1.470;2022-09-29T17:30:16;16.14;77.96
65584;DHT22;62116;43.582;1.470;2022-09-29T17:32:43;16.13;78.19
65584;DHT22;62116;43.582;1.470;2022-09-29T17:35:12;16.13;77.78
65584;DHT22;62116;43.582;1.470;2022-09-29T17:37:39;16.12;77.93
65584;DHT22;62116;43.582;1.470;2022-09-29T17:40:24;16.08;78.39
65584;DHT22;62116;43.582;1.470;2022-09-29T17:42:50;16.13;78.41
65584;DHT22;62116;43.582;1.470;2022-09-29T17:45:19;16.10;78.28
65584;DHT22;62116;43.582;1.470;2022-09-29T17:47:46;16.10;78.09
65584;DHT22;62116;43.582;1.470;2022-09-29T17:50:25;16.08;78.43
65584;DHT22;62116;43.582;1.470;2022-09-29T17:52:52;16.08;78.24
65584;DHT22;62116;43.582;1.470;2022-09-29T17:55:18;16.06;78.54
65584;DHT22;62116;43.582;1.470;2022-09-29T17:57:46;16.01;79.71
65584;DHT22;62116;43.582;1.470;2022-09-29T18:00:19;15.99;78.94
65584;DHT22;62116;43.582;1.470;2022-09-29T18:02:47;16.02;79.14
65584;DHT22;62116;43.582;1.470;2022-09-29T18:05:14;16.02;78.94
65584;DHT22;62116;43.582;1.470;2022-09-29T18:07:39;16.03;79.65
65584;DHT22;62116;43.582;1.470;2022-09-29T18:10:34;16.03;79.02
65584;DHT22;62116;43.582;1.470;2022-09-29T18:13:01;16.01;79.78
65584;DHT22;62116;43.582;1.470;2022-09-29T18:15:27;15.96;80.12
65584;DHT22;62116;43.582;1.470;2022-09-29T18:17:57;15.93;80.13
65584;DHT22;62116;43.582;1.470;2022-09-29T18:20:23;15.91;79.93
65584;DHT22;62116;43.582;1.470;2022-09-29T18:22:49;15.91;80.65
65584;DHT22;62116;43.582;1.470;2022-09-29T18:25:16;15.96;80.70
65584;DHT22;62116;43.582;1.470;2022-09-29T18:27:43;15.93;80.19
65584;DHT22;62116;43.582;1.470;2022-09-29T18:30:16;15.91;80.34
65584;DHT22;62116;43.582;1.470;2022-09-29T18:32:49;15.92;80.73
65584;DHT22;62116;43.582;1.470;2022-09-29T18:35:20;15.91;81.39
65584;DHT22;62116;43.582;1.470;2022-09-29T18:37:45;15.91;80.55
65584;DHT22;62116;43.582;1.470;2022-09-29T18:40:11;15.79;80.23
65584;DHT22;62116;43.582;1.470;2022-09-29T18:42:45;15.72;78.96
65584;DHT22;62116;43.582;1.470;2022-09-29T18:45:19;15.63;78.50
65584;DHT22;62116;43.582;1.470;2022-09-29T18:47:50;15.61;78.50
65584;DHT22;62116;43.582;1.470;2022-09-29T18:50:18;15.58;78.42
65584;DHT22;62116;43.582;1.470;2022-09-29T18:52:49;15.58;78.42
65584;DHT22;62116;43.582;1.470;2022-09-29T18:55:16;15.54;79.00
65584;DHT22;62116;43.582;1.470;2022-09-29T18:57:46;15.51;79.08
65584;DHT22;62116;43.582;1.470;2022-09-29T19:00:13;15.52;78.92